Time;durP1;ratioP1;P1;durP2;ratioP2;P2;SDS_P1;SDS_P2;PMS_P1;PMS_P2;Temp;Humidity;BMP_temperature;BMP_pressure;BME280_temperature;BME280_humidity;BME280_pressure;Samples;Min_cycle;Max_cycle;Signal;HPM_P1;HPM_P2
2022/04/15 00:00:43;;;;;;;5.80;5.13;;;;;;;;;;5066463;28;20181;-62
2022/04/15 00:03:11;;;;;;;5.23;4.73;;;;;;;;;;5073742;28;20552;-61
2022/04/15 00:05:40;;;;;;;5.67;4.37;;;;;;;;;;5078076;28;20179;-63
2022/04/15 00:08:08;;;;;;;6.83;4.97;;;;;;;;;;5085202;28;20188;-62
2022/04/15 00:10:35;;;;;;;5.70;4.37;;;;;;;;;;5062376;28;20172;-62
2022/04/15 00:13:02;;;;;;;5.03;4.60;;;;;;;;;;5069143;28;20187;-62
2022/04/15 00:15:29;;;;;;;5.23;4.60;;;;;;;;;;5063416;28;20307;-60
2022/04/15 00:17:55;;;;;;;5.27;4.77;;;;;;;;;;5067406;28;20766;-64
2022/04/15 00:20:22;;;;;;;5.10;4.20;;;;;;;;;;5062406;28;20201;-59
2022/04/15 00:22:48;;;;;;;4.77;4.37;;;;;;;;;;5061163;28;20550;-61
2022/04/15 00:25:14;;;;;;;4.67;4.17;;;;;;;;;;5062796;28;20278;-61
2022/04/15 00:27:41;;;;;;;5.30;4.80;;;;;;;;;;5041998;28;20275;-62
2022/04/15 00:30:09;;;;;;;4.70;4.20;;;;;;;;;;5082774;28;20624;-62
2022/04/15 00:32:38;;;;;;;4.73;4.30;;;;;;;;;;5076051;28;20253;-62
2022/04/15 00:35:05;;;;;;;7.00;4.93;;;;;;;;;;5065830;28;20197;-62
2022/04/15 00:37:32;;;;;;;8.03;4.43;;;;;;;;;;5079660;28;20190;-62
2022/04/15 00:40:01;;;;;;;4.73;3.97;;;;;;;;;;5062252;28;20181;-62
2022/04/15 00:42:28;;;;;;;6.37;4.97;;;;;;;;;;5057480;28;20271;-61
2022/04/15 00:44:55;;;;;;;6.80;4.43;;;;;;;;;;5060137;28;20190;-61
2022/04/15 00:47:44;;;;;;;6.30;4.90;;;;;;;;;;5071108;28;20207;-63
2022/04/15 00:50:10;;;;;;;4.93;4.53;;;;;;;;;;5061401;28;20208;-62
2022/04/15 00:52:39;;;;;;;6.43;5.83;;;;;;;;;;5060294;28;20206;-63
2022/04/15 00:55:05;;;;;;;6.57;5.13;;;;;;;;;;5065131;28;20267;-63
2022/04/15 00:57:33;;;;;;;4.70;4.20;;;;;;;;;;5048281;28;20632;-62
2022/04/15 01:00:01;;;;;;;5.37;4.90;;;;;;;;;;5076405;28;20184;-62
2022/04/15 01:02:29;;;;;;;6.83;5.07;;;;;;;;;;5055709;28;20205;-63
2022/04/15 01:04:56;;;;;;;5.73;4.93;;;;;;;;;;5062206;28;20181;-62
2022/04/15 01:07:33;;;;;;;4.93;4.43;;;;;;;;;;5059801;28;20310;-62
2022/04/15 01:10:00;;;;;;;5.73;5.13;;;;;;;;;;5073192;28;20625;-61
2022/04/15 01:12:29;;;;;;;6.70;5.00;;;;;;;;;;5055013;28;20175;-60
2022/04/15 01:14:59;;;;;;;4.70;4.20;;;;;;;;;;5065086;28;20763;-62
2022/04/15 01:17:25;;;;;;;5.93;5.33;;;;;;;;;;5040860;28;20177;-61
2022/04/15 01:19:51;;;;;;;5.77;5.10;;;;;;;;;;5054737;28;20295;-61
2022/04/15 01:22:25;;;;;;;4.73;4.23;;;;;;;;;;5035766;28;20231;-62
2022/04/15 01:24:51;;;;;;;5.87;4.87;;;;;;;;;;5044241;28;20192;-62
2022/04/15 01:27:27;;;;;;;7.23;4.97;;;;;;;;;;5053367;28;20208;-62
2022/04/15 01:29:54;;;;;;;6.53;5.17;;;;;;;;;;5064076;28;20660;-61
2022/04/15 01:32:20;;;;;;;6.00;4.97;;;;;;;;;;5032705;28;20213;-62
2022/04/15 01:34:47;;;;;;;5.67;5.17;;;;;;;;;;5062736;28;20212;-62
2022/04/15 01:37:15;;;;;;;6.30;5.07;;;;;;;;;;5027172;28;20193;-62
2022/04/15 01:39:41;;;;;;;5.37;4.90;;;;;;;;;;5034946;28;20180;-62
2022/04/15 01:42:11;;;;;;;6.90;5.80;;;;;;;;;;5052027;28;20679;-63
2022/04/15 01:44:38;;;;;;;6.00;5.03;;;;;;;;;;5036606;28;20196;-62
2022/04/15 01:47:04;;;;;;;6.90;5.83;;;;;;;;;;5023550;28;20181;-60
2022/04/15 01:49:30;;;;;;;6.07;4.90;;;;;;;;;;5061283;28;20282;-62
2022/04/15 01:51:57;;;;;;;7.23;5.97;;;;;;;;;;5034335;28;20180;-63
2022/04/15 01:54:24;;;;;;;6.73;5.17;;;;;;;;;;5041060;28;20216;-62
2022/04/15 01:56:50;;;;;;;5.93;5.17;;;;;;;;;;5042037;28;20242;-62
2022/04/15 01:59:17;;;;;;;5.70;5.10;;;;;;;;;;5045182;28;20571;-59
2022/04/15 02:01:43;;;;;;;5.40;4.90;;;;;;;;;;5034634;28;20673;-62
2022/04/15 02:04:09;;;;;;;8.00;5.53;;;;;;;;;;5059393;28;20264;-62
2022/04/15 02:06:35;;;;;;;5.90;5.40;;;;;;;;;;5030257;28;20728;-63
2022/04/15 02:09:01;;;;;;;6.30;5.30;;;;;;;;;;5042902;28;20193;-62
2022/04/15 02:11:28;;;;;;;5.30;4.80;;;;;;;;;;5054779;28;20507;-58
2022/04/15 02:13:54;;;;;;;5.67;5.13;;;;;;;;;;5044924;28;20244;-63
2022/04/15 02:16:20;;;;;;;6.47;5.20;;;;;;;;;;5059752;28;20180;-62
2022/04/15 02:18:47;;;;;;;8.93;5.70;;;;;;;;;;5077841;28;20192;-63
2022/04/15 02:21:13;;;;;;;7.07;5.57;;;;;;;;;;5060387;28;20180;-63
2022/04/15 02:23:39;;;;;;;7.57;5.23;;;;;;;;;;5067425;28;20388;-58
2022/04/15 02:26:06;;;;;;;5.97;5.23;;;;;;;;;;5070249;28;20267;-62
2022/04/15 02:28:32;;;;;;;5.80;5.30;;;;;;;;;;5051490;28;20309;-62
2022/04/15 02:30:59;;;;;;;5.93;5.33;;;;;;;;;;5074129;28;20191;-62
2022/04/15 02:33:25;;;;;;;6.53;5.87;;;;;;;;;;5059869;28;20280;-60
2022/04/15 02:35:51;;;;;;;6.07;5.30;;;;;;;;;;5048442;28;20263;-58
2022/04/15 02:38:18;;;;;;;6.43;5.60;;;;;;;;;;5072046;28;20188;-63
2022/04/15 02:40:44;;;;;;;7.00;5.23;;;;;;;;;;5062476;28;20190;-61
2022/04/15 02:43:11;;;;;;;5.50;5.00;;;;;;;;;;5061494;28;20669;-62
2022/04/15 02:45:38;;;;;;;5.43;4.93;;;;;;;;;;5067779;28;20267;-63
2022/04/15 02:48:04;;;;;;;5.63;5.00;;;;;;;;;;5060057;28;20621;-63
2022/04/15 02:50:31;;;;;;;6.40;4.97;;;;;;;;;;5083160;28;20672;-63
2022/04/15 02:52:59;;;;;;;5.70;5.10;;;;;;;;;;5076647;28;20263;-63
2022/04/15 02:55:26;;;;;;;5.87;4.93;;;;;;;;;;5074853;28;20204;-62
2022/04/15 02:57:53;;;;;;;6.20;5.60;;;;;;;;;;5055450;28;20200;-62
2022/04/15 03:00:20;;;;;;;7.00;5.70;;;;;;;;;;5056653;28;20519;-60
2022/04/15 03:02:46;;;;;;;5.90;5.30;;;;;;;;;;5073488;28;20181;-63
2022/04/15 03:05:12;;;;;;;5.87;5.27;;;;;;;;;;5077435;28;20172;-63
2022/04/15 03:07:40;;;;;;;6.00;5.40;;;;;;;;;;5057859;28;20302;-63
2022/04/15 03:10:07;;;;;;;7.90;5.70;;;;;;;;;;5071546;28;20182;-62
2022/04/15 03:12:37;;;;;;;6.10;5.50;;;;;;;;;;5064473;28;20638;-61
2022/04/15 03:15:04;;;;;;;7.30;5.47;;;;;;;;;;5073521;28;20635;-61
2022/04/15 03:17:31;;;;;;;6.63;5.43;;;;;;;;;;5065199;28;20542;-63
2022/04/15 03:19:57;;;;;;;6.17;5.57;;;;;;;;;;5083586;28;20270;-63
2022/04/15 03:22:23;;;;;;;6.70;5.50;;;;;;;;;;5065878;28;20188;-60
2022/04/15 03:24:52;;;;;;;7.17;5.47;;;;;;;;;;5064533;28;20177;-60
2022/04/15 03:27:19;;;;;;;5.77;4.80;;;;;;;;;;5084947;28;20199;-60
2022/04/15 03:29:45;;;;;;;7.60;5.77;;;;;;;;;;5080495;28;20259;-63
2022/04/15 03:32:11;;;;;;;7.50;6.80;;;;;;;;;;5075005;28;20199;-63
2022/04/15 03:34:38;;;;;;;6.10;5.50;;;;;;;;;;5086283;28;20176;-61
2022/04/15 03:37:05;;;;;;;5.70;5.10;;;;;;;;;;5060942;28;20187;-62
2022/04/15 03:39:31;;;;;;;7.33;6.17;;;;;;;;;;5085147;28;20535;-63
2022/04/15 03:41:58;;;;;;;6.37;5.20;;;;;;;;;;5056425;28;20176;-63
2022/04/15 03:44:25;;;;;;;6.60;5.50;;;;;;;;;;5054965;28;20184;-63
2022/04/15 03:46:51;;;;;;;7.63;5.83;;;;;;;;;;5083473;28;20176;-62
2022/04/15 03:49:18;;;;;;;7.60;5.43;;;;;;;;;;5062709;28;20207;-63
2022/04/15 03:51:44;;;;;;;6.30;5.70;;;;;;;;;;5056592;28;20211;-61
2022/04/15 03:54:10;;;;;;;6.07;5.33;;;;;;;;;;5054503;28;20705;-63
2022/04/15 03:56:37;;;;;;;6.93;5.73;;;;;;;;;;5055463;28;20262;-61
2022/04/15 03:59:04;;;;;;;6.77;5.80;;;;;;;;;;5065986;28;20200;-62
2022/04/15 04:01:30;;;;;;;6.57;5.47;;;;;;;;;;5081870;28;20545;-62
2022/04/15 04:03:56;;;;;;;6.03;5.43;;;;;;;;;;5081170;28;20183;-63
2022/04/15 04:06:23;;;;;;;6.50;5.90;;;;;;;;;;5065945;28;20275;-62
2022/04/15 04:08:49;;;;;;;7.13;5.90;;;;;;;;;;5067634;28;20204;-62
2022/04/15 04:11:17;;;;;;;5.43;4.93;;;;;;;;;;5060491;28;20631;-63
2022/04/15 04:13:43;;;;;;;5.87;5.37;;;;;;;;;;5054107;28;20193;-58
2022/04/15 04:16:09;;;;;;;7.50;6.80;;;;;;;;;;5041238;28;20200;-61
2022/04/15 04:18:35;;;;;;;6.07;5.37;;;;;;;;;;5043780;28;20181;-63
2022/04/15 04:21:02;;;;;;;6.10;5.50;;;;;;;;;;5052785;28;20189;-62
2022/04/15 04:23:28;;;;;;;8.37;5.97;;;;;;;;;;5062684;28;20547;-62
2022/04/15 04:25:54;;;;;;;7.20;5.40;;;;;;;;;;5053298;28;20186;-62
2022/04/15 04:28:20;;;;;;;5.93;5.30;;;;;;;;;;5037803;28;20212;-61
2022/04/15 04:30:46;;;;;;;7.07;6.37;;;;;;;;;;5055795;28;20186;-61
2022/04/15 04:33:12;;;;;;;7.97;7.17;;;;;;;;;;5057740;28;20697;-62
2022/04/15 04:35:39;;;;;;;7.40;5.23;;;;;;;;;;5067234;28;20176;-62
2022/04/15 04:38:06;;;;;;;6.80;6.20;;;;;;;;;;5040823;28;20191;-58
2022/04/15 04:40:33;;;;;;;7.10;6.10;;;;;;;;;;5061636;28;20185;-63
2022/04/15 04:42:59;;;;;;;6.03;5.43;;;;;;;;;;5040940;28;20180;-60
2022/04/15 04:45:26;;;;;;;7.87;6.03;;;;;;;;;;5044046;28;20192;-61
2022/04/15 04:47:53;;;;;;;6.57;5.83;;;;;;;;;;5059507;28;20204;-63
2022/04/15 04:50:19;;;;;;;7.60;6.37;;;;;;;;;;5036959;28;20184;-62
2022/04/15 04:52:47;;;;;;;7.17;5.37;;;;;;;;;;5059793;28;20192;-62
2022/04/15 04:55:13;;;;;;;5.90;5.40;;;;;;;;;;5046132;28;20196;-61
2022/04/15 04:57:42;;;;;;;6.70;6.00;;;;;;;;;;5047002;28;20691;-62
2022/04/15 05:00:10;;;;;;;7.43;6.73;;;;;;;;;;5043661;28;20745;-61
2022/04/15 05:02:36;;;;;;;6.40;5.70;;;;;;;;;;5057030;28;20173;-62
2022/04/15 05:05:03;;;;;;;6.77;5.87;;;;;;;;;;5060433;28;20193;-61
2022/04/15 05:07:29;;;;;;;7.23;6.20;;;;;;;;;;5042050;28;20283;-61
2022/04/15 05:09:55;;;;;;;7.23;5.93;;;;;;;;;;5038610;28;20182;-62
2022/04/15 05:12:22;;;;;;;7.23;5.87;;;;;;;;;;5038419;28;20602;-63
2022/04/15 05:14:48;;;;;;;7.87;7.07;;;;;;;;;;5034689;28;20232;-62
2022/04/15 05:17:15;;;;;;;8.10;6.93;;;;;;;;;;5040730;28;20241;-61
2022/04/15 05:19:41;;;;;;;7.47;6.77;;;;;;;;;;5056569;28;20185;-62
2022/04/15 05:22:08;;;;;;;7.63;6.37;;;;;;;;;;5040838;28;20185;-62
2022/04/15 05:24:34;;;;;;;8.20;6.70;;;;;;;;;;5031886;28;20191;-62
2022/04/15 05:27:01;;;;;;;9.63;6.93;;;;;;;;;;5045016;28;20173;-62
2022/04/15 05:29:27;;;;;;;9.60;7.00;;;;;;;;;;5035231;28;20188;-61
2022/04/15 05:31:53;;;;;;;8.43;7.57;;;;;;;;;;5039332;28;20658;-58
2022/04/15 05:34:19;;;;;;;8.83;7.37;;;;;;;;;;5043106;28;20189;-62
2022/04/15 05:36:46;;;;;;;10.33;7.40;;;;;;;;;;5037900;28;20205;-62
2022/04/15 05:39:13;;;;;;;8.77;7.53;;;;;;;;;;5040404;28;20422;-62
2022/04/15 05:41:39;;;;;;;8.63;7.23;;;;;;;;;;5041606;28;20176;-63
2022/04/15 05:44:08;;;;;;;9.37;8.47;;;;;;;;;;5038492;28;20169;-62
2022/04/15 05:46:37;;;;;;;9.33;8.03;;;;;;;;;;5037457;28;20181;-62
2022/04/15 05:49:05;;;;;;;9.57;8.50;;;;;;;;;;5046320;28;20191;-59
2022/04/15 05:51:31;;;;;;;8.73;7.93;;;;;;;;;;5061937;28;20247;-63
2022/04/15 05:53:58;;;;;;;8.47;7.63;;;;;;;;;;5038056;28;20181;-62
2022/04/15 05:56:24;;;;;;;11.10;9.07;;;;;;;;;;5037559;28;20190;-62
2022/04/15 05:58:51;;;;;;;10.03;9.03;;;;;;;;;;5048634;28;20266;-63
2022/04/15 06:01:17;;;;;;;9.57;8.60;;;;;;;;;;5057359;28;20639;-62
2022/04/15 06:03:44;;;;;;;9.40;8.50;;;;;;;;;;5039322;28;20228;-62
2022/04/15 06:06:10;;;;;;;9.40;8.40;;;;;;;;;;5038102;28;20188;-62
2022/04/15 06:08:36;;;;;;;9.47;8.43;;;;;;;;;;5043498;28;20182;-63
2022/04/15 06:11:02;;;;;;;10.20;9.17;;;;;;;;;;5039808;28;20463;-61
2022/04/15 06:13:29;;;;;;;11.10;8.80;;;;;;;;;;5044179;28;20215;-62
2022/04/15 06:15:57;;;;;;;9.20;8.30;;;;;;;;;;5078579;28;20315;-62
2022/04/15 06:18:24;;;;;;;9.57;8.57;;;;;;;;;;5080535;28;20206;-58
2022/04/15 06:20:50;;;;;;;10.70;9.10;;;;;;;;;;5061981;28;20239;-62
2022/04/15 06:23:17;;;;;;;9.63;8.57;;;;;;;;;;5085637;28;20267;-61
2022/04/15 06:25:43;;;;;;;11.83;9.40;;;;;;;;;;5076205;28;20177;-61
2022/04/15 06:28:09;;;;;;;12.07;10.17;;;;;;;;;;5079743;28;20422;-61
2022/04/15 06:30:36;;;;;;;10.77;9.00;;;;;;;;;;5062130;28;20602;-59
2022/04/15 06:33:02;;;;;;;10.77;9.33;;;;;;;;;;5079288;28;20179;-62
2022/04/15 06:35:28;;;;;;;10.13;8.53;;;;;;;;;;5071004;28;20183;-62
2022/04/15 06:37:54;;;;;;;10.73;9.17;;;;;;;;;;5081796;28;20655;-62
2022/04/15 06:40:20;;;;;;;9.27;8.37;;;;;;;;;;5082940;28;20183;-61
2022/04/15 06:42:46;;;;;;;8.33;7.53;;;;;;;;;;5062982;28;20187;-62
2022/04/15 06:45:13;;;;;;;10.37;8.53;;;;;;;;;;5071174;28;20196;-62
2022/04/15 06:47:42;;;;;;;9.63;8.73;;;;;;;;;;5071950;28;20191;-59
2022/04/15 06:50:08;;;;;;;9.93;8.70;;;;;;;;;;5061993;28;20189;-63
2022/04/15 06:52:35;;;;;;;9.03;8.10;;;;;;;;;;5052544;28;20187;-61
2022/04/15 06:55:01;;;;;;;9.37;8.37;;;;;;;;;;5044638;28;20189;-62
2022/04/15 06:57:27;;;;;;;9.20;8.33;;;;;;;;;;5050058;28;20663;-62
2022/04/15 06:59:53;;;;;;;9.33;8.47;;;;;;;;;;5076041;28;20196;-57
2022/04/15 07:02:19;;;;;;;9.43;8.53;;;;;;;;;;5066576;28;20188;-61
2022/04/15 07:04:45;;;;;;;10.03;7.70;;;;;;;;;;5080203;28;20546;-61
2022/04/15 07:07:11;;;;;;;8.80;8.00;;;;;;;;;;5068406;28;20179;-62
2022/04/15 07:09:37;;;;;;;8.13;7.43;;;;;;;;;;5067359;28;20188;-61
2022/04/15 07:12:04;;;;;;;9.73;8.77;;;;;;;;;;5063392;28;20176;-62
2022/04/15 07:14:32;;;;;;;10.43;7.53;;;;;;;;;;5061096;28;20348;-61
2022/04/15 07:16:59;;;;;;;9.90;8.90;;;;;;;;;;5060065;28;20176;-62
2022/04/15 07:19:27;;;;;;;10.67;8.60;;;;;;;;;;5074753;28;20200;-61
2022/04/15 07:21:53;;;;;;;9.43;7.80;;;;;;;;;;5061901;28;20410;-61
2022/04/15 07:24:20;;;;;;;10.33;8.43;;;;;;;;;;5076174;28;20179;-60
2022/04/15 07:26:46;;;;;;;8.10;7.30;;;;;;;;;;5060750;28;20264;-62
2022/04/15 07:29:13;;;;;;;8.23;7.40;;;;;;;;;;5056740;28;20349;-61
2022/04/15 07:31:40;;;;;;;8.37;7.57;;;;;;;;;;5052938;28;20273;-59
2022/04/15 07:34:07;;;;;;;8.33;7.37;;;;;;;;;;5073605;28;20233;-60
2022/04/15 07:38:59;;;;;;;8.30;7.60;;;;;;;;;;5074701;28;20200;-62
2022/04/15 07:41:26;;;;;;;7.67;6.87;;;;;;;;;;5077220;28;20184;-61
2022/04/15 07:43:52;;;;;;;7.60;6.80;;;;;;;;;;5073562;28;20196;-61
2022/04/15 07:46:18;;;;;;;7.70;6.90;;;;;;;;;;5071162;28;20626;-59
2022/04/15 07:48:44;;;;;;;6.50;5.90;;;;;;;;;;5068256;28;20190;-62
2022/04/15 07:51:10;;;;;;;6.50;5.90;;;;;;;;;;5057293;28;20847;-62
2022/04/15 07:53:37;;;;;;;6.83;6.07;;;;;;;;;;5077646;28;20187;-62
2022/04/15 07:56:04;;;;;;;7.38;6.78;;;;;;;;;;5054674;28;20933;-62
2022/04/15 07:58:30;;;;;;;6.73;6.07;;;;;;;;;;5084710;28;20207;-61
2022/04/15 08:00:59;;;;;;;6.07;5.57;;;;;;;;;;5070679;28;20548;-62
2022/04/15 08:03:26;;;;;;;6.00;5.40;;;;;;;;;;5056522;28;20223;-62
2022/04/15 08:05:52;;;;;;;5.60;5.10;;;;;;;;;;5069836;28;20785;-59
2022/04/15 08:08:18;;;;;;;5.23;4.83;;;;;;;;;;5047887;28;20187;-61
2022/04/15 08:10:44;;;;;;;6.57;5.67;;;;;;;;;;5069143;28;20184;-61
2022/04/15 08:13:10;;;;;;;5.10;4.63;;;;;;;;;;5069048;28;20711;-62
2022/04/15 08:15:37;;;;;;;4.57;4.17;;;;;;;;;;5068924;28;20220;-62
2022/04/15 08:18:03;;;;;;;5.00;4.53;;;;;;;;;;5060462;28;20239;-58
2022/04/15 08:20:29;;;;;;;4.40;4.00;;;;;;;;;;5049462;28;20184;-62
2022/04/15 08:22:56;;;;;;;4.30;3.90;;;;;;;;;;5057827;28;20631;-61
2022/04/15 08:25:22;;;;;;;4.57;4.17;;;;;;;;;;5057153;28;20732;-62
2022/04/15 08:27:49;;;;;;;4.17;3.80;;;;;;;;;;5062189;28;20666;-62
2022/04/15 08:30:15;;;;;;;3.93;3.63;;;;;;;;;;5069356;28;20191;-60
2022/04/15 08:32:41;;;;;;;4.43;3.80;;;;;;;;;;5082874;28;20185;-58
2022/04/15 08:35:09;;;;;;;3.60;3.20;;;;;;;;;;5076150;28;20191;-61
2022/04/15 08:37:35;;;;;;;4.97;3.63;;;;;;;;;;5063648;28;20204;-62
2022/04/15 08:40:02;;;;;;;4.33;3.37;;;;;;;;;;5066760;28;20216;-61
2022/04/15 08:42:28;;;;;;;3.90;3.60;;;;;;;;;;5073400;28;20183;-62
2022/04/15 08:44:56;;;;;;;3.57;3.27;;;;;;;;;;5066459;28;20239;-60
2022/04/15 08:47:22;;;;;;;4.70;3.40;;;;;;;;;;5065328;28;20337;-60
2022/04/15 08:49:48;;;;;;;3.87;3.57;;;;;;;;;;5068572;28;20211;-61
2022/04/15 08:52:16;;;;;;;5.23;3.90;;;;;;;;;;5064657;28;20188;-62
2022/04/15 08:54:42;;;;;;;3.30;3.10;;;;;;;;;;5065496;28;20715;-60
2022/04/15 08:57:08;;;;;;;5.00;3.27;;;;;;;;;;5051866;28;20284;-62
2022/04/15 08:59:35;;;;;;;2.77;2.57;;;;;;;;;;5072775;28;20200;-61
2022/04/15 09:02:01;;;;;;;3.23;2.93;;;;;;;;;;5070326;28;20188;-62
2022/04/15 09:04:28;;;;;;;3.03;2.80;;;;;;;;;;5072732;28;20187;-62
2022/04/15 09:06:55;;;;;;;3.07;2.77;;;;;;;;;;5064733;28;20651;-61
2022/04/15 09:09:24;;;;;;;3.67;3.30;;;;;;;;;;5044387;28;20181;-62
2022/04/15 09:11:51;;;;;;;3.23;3.00;;;;;;;;;;5045928;28;20184;-60
2022/04/15 09:14:17;;;;;;;4.00;3.00;;;;;;;;;;5049139;28;20251;-60
2022/04/15 09:16:45;;;;;;;3.73;3.43;;;;;;;;;;5069624;28;20596;-60
2022/04/15 09:19:13;;;;;;;4.23;3.40;;;;;;;;;;5068927;28;20211;-61
2022/04/15 09:21:40;;;;;;;4.53;2.97;;;;;;;;;;5072000;28;20655;-60
2022/04/15 09:24:11;;;;;;;3.33;2.80;;;;;;;;;;5069038;28;20184;-61
2022/04/15 09:26:38;;;;;;;4.63;3.27;;;;;;;;;;5053993;28;20175;-59
2022/04/15 09:29:04;;;;;;;3.27;3.07;;;;;;;;;;5052597;28;20181;-60
2022/04/15 09:31:30;;;;;;;4.20;3.33;;;;;;;;;;5072178;28;20609;-60
2022/04/15 09:34:01;;;;;;;4.57;3.43;;;;;;;;;;5062813;28;20199;-61
2022/04/15 09:36:29;;;;;;;3.63;3.33;;;;;;;;;;5067888;28;20636;-61
2022/04/15 09:39:15;;;;;;;3.53;3.13;;;;;;;;;;5050058;28;20204;-61
2022/04/15 09:41:49;;;;;;;4.53;3.10;;;;;;;;;;5050163;28;20639;-61
2022/04/15 09:44:15;;;;;;;3.23;2.97;;;;;;;;;;5028291;28;20656;-61
2022/04/15 09:46:44;;;;;;;3.10;2.90;;;;;;;;;;5052931;28;20548;-61
2022/04/15 09:49:10;;;;;;;3.43;3.03;;;;;;;;;;5072771;28;20185;-61
2022/04/15 09:51:38;;;;;;;4.57;3.50;;;;;;;;;;5052591;28;20173;-62
2022/04/15 09:54:05;;;;;;;3.90;3.30;;;;;;;;;;5044223;28;20632;-61
2022/04/15 09:56:33;;;;;;;3.70;3.10;;;;;;;;;;5058574;28;20180;-60
2022/04/15 09:59:03;;;;;;;3.77;3.40;;;;;;;;;;5057305;28;20506;-62
2022/04/15 10:01:29;;;;;;;3.43;3.13;;;;;;;;;;5075144;28;20286;-60
2022/04/15 10:03:56;;;;;;;4.90;3.67;;;;;;;;;;5056618;28;20281;-61
2022/04/15 10:06:22;;;;;;;4.37;3.57;;;;;;;;;;5056515;28;20179;-62
2022/04/15 10:08:49;;;;;;;3.67;3.37;;;;;;;;;;5067048;28;20176;-59
2022/04/15 10:11:16;;;;;;;4.47;3.63;;;;;;;;;;5072729;28;20253;-62
2022/04/15 10:13:45;;;;;;;4.27;3.97;;;;;;;;;;5061914;28;20581;-62
2022/04/15 10:16:11;;;;;;;5.83;3.60;;;;;;;;;;5057959;28;20227;-61
2022/04/15 10:18:38;;;;;;;3.83;3.53;;;;;;;;;;5059122;28;20214;-61
2022/04/15 10:21:06;;;;;;;3.67;3.40;;;;;;;;;;5065175;28;20185;-62
2022/04/15 10:23:33;;;;;;;3.90;3.50;;;;;;;;;;5073299;28;20176;-62
2022/04/15 10:26:01;;;;;;;4.60;4.13;;;;;;;;;;5047603;28;20184;-60
2022/04/15 10:28:44;;;;;;;4.50;4.10;;;;;;;;;;5068965;28;20648;-62
2022/04/15 10:31:16;;;;;;;6.63;4.70;;;;;;;;;;5050184;28;20192;-62
2022/04/15 10:33:43;;;;;;;6.00;4.63;;;;;;;;;;5045970;28;20189;-57
2022/04/15 10:36:25;;;;;;;4.83;4.43;;;;;;;;;;5047353;28;20176;-61
2022/04/15 10:39:04;;;;;;;5.07;4.63;;;;;;;;;;5063497;28;20673;-61
2022/04/15 10:41:43;;;;;;;6.63;5.70;;;;;;;;;;5047858;28;20279;-62
2022/04/15 10:44:25;;;;;;;5.43;5.03;;;;;;;;;;5049894;28;20172;-61
2022/04/15 10:46:51;;;;;;;5.93;4.93;;;;;;;;;;5063836;28;20674;-61
2022/04/15 10:49:23;;;;;;;6.20;5.10;;;;;;;;;;5063942;28;20188;-59
2022/04/15 10:51:51;;;;;;;5.20;4.80;;;;;;;;;;5064915;28;20308;-62
2022/04/15 10:54:30;;;;;;;5.27;4.83;;;;;;;;;;5066402;28;20536;-62
2022/04/15 10:57:03;;;;;;;5.53;5.13;;;;;;;;;;5072667;28;20840;-62
2022/04/15 11:02:21;;;;;;;5.23;4.73;;;;;;;;;;5059401;28;20203;-59
2022/04/15 11:04:52;;;;;;;6.47;5.87;;;;;;;;;;5045588;28;20555;-63
2022/04/15 11:07:28;;;;;;;5.73;5.23;;;;;;;;;;5066801;28;20187;-61
2022/04/15 11:09:55;;;;;;;6.60;5.80;;;;;;;;;;5048800;28;20187;-62
2022/04/15 11:12:36;;;;;;;7.63;6.30;;;;;;;;;;5052929;28;20183;-63
2022/04/15 11:15:03;;;;;;;6.40;5.90;;;;;;;;;;5050999;28;20224;-62
2022/04/15 11:17:41;;;;;;;6.70;6.10;;;;;;;;;;5057879;28;20540;-61
2022/04/15 11:20:10;;;;;;;5.30;4.80;;;;;;;;;;5064101;28;20187;-63
2022/04/15 11:22:39;;;;;;;6.30;5.70;;;;;;;;;;5058329;28;20204;-63
2022/04/15 11:25:07;;;;;;;6.30;5.80;;;;;;;;;;5063237;28;20188;-62
2022/04/15 11:27:35;;;;;;;7.20;6.60;;;;;;;;;;5055019;28;20307;-61
2022/04/15 11:30:05;;;;;;;6.60;6.10;;;;;;;;;;5055331;28;20177;-63
2022/04/15 11:32:31;;;;;;;9.23;7.03;;;;;;;;;;5052338;28;20646;-62
2022/04/15 11:35:03;;;;;;;8.13;7.43;;;;;;;;;;5074434;28;20185;-62
2022/04/15 11:37:29;;;;;;;7.50;6.70;;;;;;;;;;5072129;28;20537;-63
2022/04/15 11:39:58;;;;;;;8.03;7.23;;;;;;;;;;5059516;28;20654;-61
2022/04/15 11:42:26;;;;;;;8.83;8.03;;;;;;;;;;5074709;28;20172;-63
2022/04/15 11:44:52;;;;;;;8.63;7.93;;;;;;;;;;5062766;28;20183;-62
2022/04/15 11:47:19;;;;;;;8.80;8.10;;;;;;;;;;5058637;28;20188;-61
2022/04/15 11:49:46;;;;;;;8.80;8.00;;;;;;;;;;5060148;28;20269;-61
2022/04/15 11:52:21;;;;;;;8.57;7.77;;;;;;;;;;5051285;28;20200;-62
2022/04/15 11:54:47;;;;;;;9.33;8.53;;;;;;;;;;5059551;28;20184;-62
2022/04/15 11:57:13;;;;;;;10.50;9.50;;;;;;;;;;5048403;28;20979;-62
2022/04/15 11:59:43;;;;;;;13.47;12.50;;;;;;;;;;5065567;28;20200;-62
2022/04/15 12:02:10;;;;;;;11.40;10.53;;;;;;;;;;5076574;28;20176;-62
2022/04/15 12:04:36;;;;;;;8.90;8.20;;;;;;;;;;5074400;28;20172;-62
2022/04/15 12:07:03;;;;;;;9.30;8.50;;;;;;;;;;5056025;28;20712;-61
2022/04/15 12:09:29;;;;;;;9.73;8.93;;;;;;;;;;5050312;28;20207;-63
2022/04/15 12:11:55;;;;;;;10.10;9.20;;;;;;;;;;5073058;28;20246;-61
2022/04/15 12:14:35;;;;;;;10.00;9.10;;;;;;;;;;5047846;28;20235;-62
2022/04/15 12:17:02;;;;;;;10.20;9.30;;;;;;;;;;5039127;28;20180;-63
2022/04/15 12:19:28;;;;;;;10.43;9.53;;;;;;;;;;5029366;28;20196;-61
2022/04/15 12:21:54;;;;;;;10.13;9.23;;;;;;;;;;5059911;28;20188;-60
2022/04/15 12:24:22;;;;;;;11.83;10.63;;;;;;;;;;5043981;28;20188;-62
2022/04/15 12:26:50;;;;;;;11.20;10.30;;;;;;;;;;5069231;28;20177;-62
2022/04/15 12:32:24;;;;;;;11.00;9.97;;;;;;;;;;5069428;28;20191;-62
2022/04/15 12:34:50;;;;;;;12.03;11.00;;;;;;;;;;5064711;28;20259;-63
2022/04/15 12:37:36;;;;;;;10.83;9.80;;;;;;;;;;5069459;28;20188;-62
2022/04/15 12:40:03;;;;;;;12.00;11.00;;;;;;;;;;5045218;28;20181;-61
2022/04/15 12:42:30;;;;;;;12.30;11.20;;;;;;;;;;5048564;28;20691;-62
2022/04/15 12:44:57;;;;;;;12.07;10.97;;;;;;;;;;5067099;28;20189;-62
2022/04/15 12:47:27;;;;;;;12.13;11.03;;;;;;;;;;5074828;28;20218;-62
2022/04/15 12:49:54;;;;;;;12.33;11.23;;;;;;;;;;5046419;28;20785;-62
2022/04/15 12:52:24;;;;;;;11.53;10.53;;;;;;;;;;5066428;28;20234;-62
2022/04/15 12:55:01;;;;;;;12.13;11.00;;;;;;;;;;5052279;28;20216;-59
2022/04/15 12:57:34;;;;;;;12.00;10.90;;;;;;;;;;5047100;28;20263;-62
2022/04/15 13:00:00;;;;;;;12.50;11.40;;;;;;;;;;5034041;28;20188;-60
2022/04/15 13:02:30;;;;;;;12.60;11.60;;;;;;;;;;5040445;28;20664;-62
2022/04/15 13:04:56;;;;;;;12.67;11.60;;;;;;;;;;5038784;28;20177;-61
2022/04/15 13:07:23;;;;;;;11.80;10.80;;;;;;;;;;5041000;28;20640;-58
2022/04/15 13:09:49;;;;;;;12.90;11.63;;;;;;;;;;5049031;28;20674;-60
2022/04/15 13:12:17;;;;;;;11.23;10.17;;;;;;;;;;5053084;28;20188;-62
2022/04/15 13:14:44;;;;;;;12.07;11.07;;;;;;;;;;5056481;28;20584;-62
2022/04/15 13:17:11;;;;;;;11.53;10.53;;;;;;;;;;5048899;28;20187;-62
2022/04/15 13:19:37;;;;;;;12.37;11.00;;;;;;;;;;5059302;28;20200;-60
2022/04/15 13:22:04;;;;;;;11.03;10.07;;;;;;;;;;5031071;28;20187;-59
2022/04/15 13:24:31;;;;;;;11.73;10.73;;;;;;;;;;5045484;28;20589;-61
2022/04/15 13:26:57;;;;;;;11.10;10.20;;;;;;;;;;5036837;28;20275;-62
2022/04/15 13:29:24;;;;;;;10.40;9.50;;;;;;;;;;5050064;28;20192;-63
2022/04/15 13:31:51;;;;;;;11.23;10.17;;;;;;;;;;5056059;28;20185;-63
2022/04/15 13:34:18;;;;;;;10.63;9.73;;;;;;;;;;5041277;28;20635;-63
2022/04/15 13:36:44;;;;;;;11.07;10.17;;;;;;;;;;5043981;28;20180;-61
2022/04/15 13:39:10;;;;;;;10.77;9.77;;;;;;;;;;5031865;28;20201;-63
2022/04/15 13:41:36;;;;;;;11.63;10.63;;;;;;;;;;5055410;28;20331;-64
2022/04/15 13:44:03;;;;;;;11.50;10.40;;;;;;;;;;5032140;28;20560;-64
2022/04/15 13:46:29;;;;;;;11.80;10.77;;;;;;;;;;5042122;28;20315;-63
2022/04/15 13:48:55;;;;;;;12.77;11.73;;;;;;;;;;5049025;28;20288;-65
2022/04/15 13:51:22;;;;;;;11.50;10.47;;;;;;;;;;5046479;28;20544;-64
2022/04/15 13:56:41;;;;;;;11.90;10.80;;;;;;;;;;5059204;28;20661;-61
2022/04/15 13:59:12;;;;;;;12.00;11.00;;;;;;;;;;5052672;28;20217;-63
2022/04/15 14:01:44;;;;;;;13.37;11.33;;;;;;;;;;5031428;28;20180;-60
2022/04/15 14:04:11;;;;;;;12.50;11.40;;;;;;;;;;5042333;28;20173;-57
2022/04/15 14:06:38;;;;;;;11.07;10.10;;;;;;;;;;5046705;28;20571;-59
2022/04/15 14:09:05;;;;;;;12.57;11.37;;;;;;;;;;5046966;28;20184;-57
2022/04/15 14:11:33;;;;;;;11.17;10.17;;;;;;;;;;5041002;28;20226;-58
2022/04/15 14:14:00;;;;;;;11.00;10.07;;;;;;;;;;5029132;28;21051;-59
2022/04/15 14:16:26;;;;;;;10.93;9.87;;;;;;;;;;5016930;28;20182;-59
2022/04/15 14:18:53;;;;;;;10.43;9.53;;;;;;;;;;5031573;28;20709;-59
2022/04/15 14:21:19;;;;;;;11.60;10.70;;;;;;;;;;5027065;28;20731;-58
2022/04/15 14:23:45;;;;;;;11.17;10.17;;;;;;;;;;5019536;28;20181;-59
2022/04/15 14:26:12;;;;;;;10.73;9.83;;;;;;;;;;5027150;28;20186;-59
2022/04/15 14:28:39;;;;;;;10.93;9.83;;;;;;;;;;5020543;28;20182;-60
2022/04/15 14:31:06;;;;;;;11.20;10.30;;;;;;;;;;5042766;28;20489;-61
2022/04/15 14:33:33;;;;;;;11.50;10.53;;;;;;;;;;5033649;28;20648;-59
2022/04/15 14:36:00;;;;;;;11.93;10.90;;;;;;;;;;5021928;28;20273;-58
2022/04/15 14:38:26;;;;;;;13.00;11.80;;;;;;;;;;5024574;28;20213;-59
2022/04/15 14:40:52;;;;;;;13.50;12.30;;;;;;;;;;5029334;28;20213;-57
2022/04/15 14:43:18;;;;;;;12.37;11.37;;;;;;;;;;5041079;28;20185;-57
2022/04/15 14:45:45;;;;;;;14.17;13.03;;;;;;;;;;5028954;28;20679;-58
2022/04/15 14:48:14;;;;;;;14.00;12.70;;;;;;;;;;5039266;28;20205;-57
2022/04/15 14:50:41;;;;;;;12.97;11.83;;;;;;;;;;5017021;28;20341;-59